createdAt,value
2023-05-20T00:00:49.852Z,101180.78
2023-05-20T00:04:53.012Z,101174.06
2023-05-20T00:09:00.558Z,101174.47
2023-05-20T00:13:07.211Z,101190.91
2023-05-20T00:17:10.470Z,101172.34
2023-05-20T00:21:13.751Z,101189.22
2023-05-20T00:25:18.520Z,101191.28
2023-05-20T00:29:22.374Z,101195.13
2023-05-20T00:33:25.714Z,101190.44
2023-05-20T00:37:29.087Z,101194.66
2023-05-20T00:41:34.495Z,101191.47
2023-05-20T00:45:38.999Z,101183.16
2023-05-20T00:49:42.351Z,101191.09
2023-05-20T00:53:45.880Z,101179.63
2023-05-20T00:57:50.603Z,101181.66
2023-05-20T01:01:53.909Z,101182.81
2023-05-20T01:05:57.261Z,101178.16
2023-05-20T01:10:01.286Z,101173.97
2023-05-20T01:14:08.938Z,101175.16
2023-05-20T01:18:13.579Z,101173.75
2023-05-20T01:22:17.160Z,101180.66
2023-05-20T01:26:27.433Z,101171.66
2023-05-20T01:30:32.187Z,101173.47
2023-05-20T01:34:37.947Z,101177.50
2023-05-20T01:38:43.109Z,101175.94
2023-05-20T01:42:53.489Z,101161.25
2023-05-20T01:46:57.403Z,101164.78
2023-05-20T01:51:01.777Z,101161.47
2023-05-20T01:55:05.406Z,101154.88
2023-05-20T01:59:10.309Z,101159.53
2023-05-20T02:03:13.542Z,101153.16
2023-05-20T02:07:16.985Z,101152.66
2023-05-20T02:11:20.758Z,101162.41
2023-05-20T02:15:25.207Z,101158.91
2023-05-20T02:19:28.795Z,101164.50
2023-05-20T02:23:32.813Z,101159.84
2023-05-20T02:27:37.181Z,101150.81
2023-05-20T02:31:41.744Z,101151.84
2023-05-20T02:35:45.117Z,101146.66
2023-05-20T02:39:48.414Z,101144.19
2023-05-20T02:43:51.808Z,101138.72
2023-05-20T02:47:56.645Z,101143.53
2023-05-20T02:51:59.968Z,101139.41
2023-05-20T02:56:04.664Z,101135.19
2023-05-20T03:00:11.254Z,101133.72
2023-05-20T03:04:16.169Z,101143.00
2023-05-20T03:08:20.089Z,101134.53
2023-05-20T03:12:23.128Z,101127.75
2023-05-20T03:16:28.544Z,101130.50
2023-05-20T03:20:34.090Z,101126.84
2023-05-20T03:24:37.461Z,101129.75
2023-05-20T03:28:40.528Z,101134.81
2023-05-20T03:32:45.235Z,101129.81
2023-05-20T03:36:49.962Z,101127.13
2023-05-20T03:40:53.018Z,101128.16
2023-05-20T03:44:56.621Z,101125.38
2023-05-20T03:49:03.085Z,101111.09
2023-05-20T03:53:08.678Z,101117.34
2023-05-20T03:57:16.337Z,101121.00
2023-05-20T04:01:19.566Z,101132.44
2023-05-20T04:05:22.731Z,101128.84
2023-05-20T04:09:27.654Z,101129.88
2023-05-20T04:13:31.208Z,101133.28
2023-05-20T04:17:37.835Z,101123.19
2023-05-20T04:21:44.285Z,101121.75
2023-05-20T04:25:49.027Z,101128.50
2023-05-20T04:29:52.558Z,101121.59
2023-05-20T04:33:56.799Z,101123.69
2023-05-20T04:38:00.165Z,101119.94
2023-05-20T04:42:05.549Z,101127.97
2023-05-20T04:46:09.874Z,101124.66
2023-05-20T04:50:13.932Z,101126.78
2023-05-20T04:54:18.663Z,101120.50
2023-05-20T04:58:24.568Z,101120.91
2023-05-20T05:02:28.039Z,101116.31
2023-05-20T05:06:32.011Z,101110.03
2023-05-20T05:10:36.382Z,101114.28
2023-05-20T05:14:41.526Z,101105.25
2023-05-20T05:18:45.600Z,101112.44
2023-05-20T05:22:50.598Z,101104.25
2023-05-20T05:26:54.846Z,101107.09
2023-05-20T05:30:59.772Z,101105.22
2023-05-20T05:35:02.927Z,101106.72
2023-05-20T05:39:06.640Z,101110.34
2023-05-20T05:43:10.104Z,101108.88
2023-05-20T05:47:14.918Z,101104.88
2023-05-20T05:51:18.717Z,101094.94
2023-05-20T05:55:24.184Z,101096.00
2023-05-20T05:59:27.468Z,101098.09
2023-05-20T06:03:32.545Z,101090.88
2023-05-20T06:07:36.145Z,101096.41
2023-05-20T06:11:39.202Z,101106.03
2023-05-20T06:15:42.243Z,101100.94
2023-05-20T06:19:47.497Z,101097.94
2023-05-20T06:23:50.883Z,101095.31
2023-05-20T06:27:55.030Z,101085.06
2023-05-20T06:32:01.098Z,101085.03
2023-05-20T06:36:05.842Z,101077.56
2023-05-20T06:40:09.732Z,101077.16
2023-05-20T06:44:13.636Z,101078.88
2023-05-20T06:48:42.699Z,101069.50
2023-05-20T06:52:47.529Z,101067.69
2023-05-20T06:56:51.599Z,101066.19
2023-05-20T07:00:57.370Z,101059.91
2023-05-20T07:05:01.945Z,101055.16
2023-05-20T07:09:08.005Z,101049.63
2023-05-20T07:13:11.561Z,101048.88
2023-05-20T07:17:18.422Z,101048.25
2023-05-20T07:21:24.103Z,101049.03
2023-05-20T07:25:47.791Z,101047.53
2023-05-20T07:29:51.088Z,101050.03
2023-05-20T07:33:54.559Z,101038.34
2023-05-20T07:37:57.762Z,101050.31
2023-05-20T07:42:02.835Z,101042.00
2023-05-20T07:46:06.777Z,101053.75
2023-05-20T07:50:10.360Z,101055.91
2023-05-20T07:54:15.630Z,101052.88
2023-05-20T07:58:24.434Z,101045.63
2023-05-20T08:02:28.011Z,101041.72
2023-05-20T08:06:32.192Z,101036.47
2023-05-20T08:10:35.908Z,101027.97
2023-05-20T08:14:41.389Z,101035.25
2023-05-20T08:18:45.325Z,101021.75
2023-05-20T08:22:50.169Z,101018.50
2023-05-20T08:26:54.394Z,101020.06
2023-05-20T08:31:02.607Z,101027.09
2023-05-20T08:35:09.090Z,101029.81
2023-05-20T08:39:12.505Z,101011.03
2023-05-20T08:43:18.620Z,101010.81
2023-05-20T08:47:24.296Z,101024.25
2023-05-20T08:51:28.480Z,101022.63
2023-05-20T08:55:36.355Z,101018.72
2023-05-20T08:59:41.403Z,101017.03
2023-05-20T09:03:46.562Z,101027.16
2023-05-20T09:07:49.890Z,101031.25
2023-05-20T09:11:54.469Z,101031.69
2023-05-20T09:15:58.991Z,101017.84
2023-05-20T09:20:04.410Z,101017.81
2023-05-20T09:24:08.523Z,101017.47
2023-05-20T09:28:12.629Z,101024.81
2023-05-20T09:32:16.768Z,101016.53
2023-05-20T09:36:21.614Z,101017.28
2023-05-20T09:40:27.972Z,101013.72
2023-05-20T09:44:33.470Z,101020.00
2023-05-20T09:48:37.990Z,101020.19
2023-05-20T09:52:43.390Z,101009.22
2023-05-20T09:56:47.871Z,101016.19
2023-05-20T10:00:52.465Z,101008.81
2023-05-20T10:04:57.421Z,101008.63
2023-05-20T10:09:12.473Z,101004.81
2023-05-20T10:13:23.770Z,101009.75
2023-05-20T10:17:30.143Z,101004.06
2023-05-20T10:21:33.780Z,100999.84
2023-05-20T10:25:38.435Z,101005.09
2023-05-20T10:29:45.915Z,100998.06
2023-05-20T10:33:50.451Z,100993.88
2023-05-20T10:37:55.190Z,100979.34
2023-05-20T10:42:09.437Z,100988.84
2023-05-20T10:46:31.164Z,100986.03
2023-05-20T10:50:37.438Z,100984.09
2023-05-20T10:54:45.359Z,100988.56
2023-05-20T10:58:50.347Z,100993.59
2023-05-20T11:02:54.160Z,100984.03
2023-05-20T11:06:59.371Z,100991.59
2023-05-20T11:11:03.513Z,100986.44
2023-05-20T11:15:13.692Z,100986.63
2023-05-20T11:19:19.019Z,100975.59
2023-05-20T11:23:25.231Z,100970.44
2023-05-20T11:27:29.368Z,100965.28
2023-05-20T11:31:34.040Z,100965.69
2023-05-20T11:35:37.231Z,100956.00
2023-05-20T11:39:40.623Z,100960.47
2023-05-20T11:43:45.001Z,100958.84
2023-05-20T11:47:59.897Z,100953.22
2023-05-20T11:52:04.807Z,100936.13
2023-05-20T11:56:08.714Z,100939.81
2023-05-20T12:00:12.395Z,100945.25
2023-05-20T12:04:22.638Z,100942.72
2023-05-20T12:08:26.160Z,100944.63
2023-05-20T12:12:29.793Z,100941.25
2023-05-20T12:16:34.108Z,100934.00
2023-05-20T12:20:39.499Z,100927.09
2023-05-20T12:24:43.050Z,100937.56
2023-05-20T12:28:46.182Z,100934.69
2023-05-20T12:32:52.041Z,100948.47
2023-05-20T12:36:59.144Z,100938.31
2023-05-20T12:41:04.027Z,100935.84
2023-05-20T12:45:08.349Z,100933.59
2023-05-20T12:49:12.545Z,100920.44
2023-05-20T12:53:17.453Z,100923.03
2023-05-20T12:57:20.541Z,100914.75
2023-05-20T13:01:23.764Z,100929.19
2023-05-20T13:05:27.225Z,100925.38
2023-05-20T13:09:32.997Z,100911.44
2023-05-20T13:13:37.119Z,100912.56
2023-05-20T13:17:40.622Z,100910.75
2023-05-20T13:21:43.693Z,100905.13
2023-05-20T13:25:48.069Z,100907.47
2023-05-20T13:29:51.230Z,100900.28
2023-05-20T13:33:55.332Z,100892.31
2023-05-20T13:38:01.157Z,100884.44
2023-05-20T13:42:06.404Z,100869.66
2023-05-20T13:46:10.221Z,100878.09
2023-05-20T13:50:14.454Z,100874.56
2023-05-20T13:54:18.288Z,100872.41
2023-05-20T13:58:23.125Z,100854.59
2023-05-20T14:02:26.600Z,100852.34
2023-05-20T14:06:32.026Z,100847.03
2023-05-20T14:10:35.386Z,100843.69
2023-05-20T14:14:41.514Z,100843.16
2023-05-20T14:18:46.190Z,100832.03
2023-05-20T14:22:50.152Z,100827.78
2023-05-20T14:26:53.180Z,100827.38
2023-05-20T14:30:58.002Z,100817.50
2023-05-20T14:35:01.392Z,100820.63
2023-05-20T14:39:04.488Z,100812.16
2023-05-20T14:43:07.681Z,100797.53
2023-05-20T14:47:12.193Z,100799.53
2023-05-20T14:51:15.203Z,100794.19
2023-05-20T14:55:18.253Z,100804.16
2023-05-20T14:59:21.776Z,100798.41
2023-05-20T15:03:28.131Z,100814.94
2023-05-20T15:07:31.647Z,100806.25
2023-05-20T15:11:35.356Z,100812.03
2023-05-20T15:15:40.078Z,100811.41
2023-05-20T15:19:45.973Z,100802.47
2023-05-20T15:23:49.752Z,100803.75
2023-05-20T15:27:53.915Z,100802.47
2023-05-20T15:31:57.765Z,100814.09
2023-05-20T15:36:03.076Z,100797.47
2023-05-20T15:40:07.048Z,100802.56
2023-05-20T15:44:10.930Z,100800.31
2023-05-20T15:48:13.897Z,100792.88
2023-05-20T15:52:19.410Z,100801.44
2023-05-20T15:56:23.505Z,100790.03
2023-05-20T16:00:29.247Z,100794.06
2023-05-20T16:04:33.647Z,100779.91
2023-05-20T16:08:38.786Z,100784.16
2023-05-20T16:12:42.042Z,100791.25
2023-05-20T16:16:45.834Z,100789.44
2023-05-20T16:20:49.152Z,100785.88
2023-05-20T16:24:55.187Z,100789.44
2023-05-20T16:28:59.111Z,100788.00
2023-05-20T16:33:02.836Z,100782.97
2023-05-20T16:37:06.604Z,100778.66
2023-05-20T16:41:11.104Z,100783.06
2023-05-20T16:45:14.089Z,100785.78
2023-05-20T16:49:17.312Z,100793.22
2023-05-20T16:53:22.354Z,100792.84
2023-05-20T16:57:27.693Z,100800.00
2023-05-20T17:01:32.268Z,100804.91
2023-05-20T17:05:37.261Z,100809.34
2023-05-20T17:09:40.816Z,100816.81
2023-05-20T17:13:46.951Z,100813.91
2023-05-20T17:17:51.196Z,100817.25
2023-05-20T17:21:55.308Z,100821.06
2023-05-20T17:25:58.852Z,100822.22
2023-05-20T17:30:06.529Z,100811.84
2023-05-20T17:34:10.757Z,100818.69
2023-05-20T17:38:17.064Z,100811.31
2023-05-20T17:42:20.744Z,100806.66
2023-05-20T17:46:25.940Z,100798.91
2023-05-20T17:50:29.258Z,100788.50
2023-05-20T17:54:32.344Z,100802.22
2023-05-20T17:58:35.895Z,100796.75
2023-05-20T18:02:47.433Z,100803.19
2023-05-20T18:06:51.187Z,100804.31
2023-05-20T18:10:55.747Z,100813.41
2023-05-20T18:14:59.216Z,100819.06
2023-05-20T18:19:05.964Z,100813.44
2023-05-20T18:23:09.213Z,100812.34
2023-05-20T18:27:12.571Z,100816.69
2023-05-20T18:31:15.782Z,100816.94
2023-05-20T18:35:20.484Z,100813.50
2023-05-20T18:39:24.236Z,100821.47
2023-05-20T18:43:29.201Z,100828.53
2023-05-20T18:47:33.159Z,100829.03
2023-05-20T18:51:37.983Z,100835.22
2023-05-20T18:55:45.228Z,100832.66
2023-05-20T18:59:48.915Z,100828.81
2023-05-20T19:03:53.290Z,100825.44
2023-05-20T19:08:00.553Z,100826.53
2023-05-20T19:12:05.018Z,100824.69
2023-05-20T19:16:08.419Z,100829.28
2023-05-20T19:20:12.059Z,100824.25
2023-05-20T19:24:18.033Z,100825.25
2023-05-20T19:28:23.084Z,100829.09
2023-05-20T19:32:27.313Z,100824.31
2023-05-20T19:36:30.433Z,100820.88
2023-05-20T19:40:36.728Z,100824.94
2023-05-20T19:44:40.864Z,100823.94
2023-05-20T19:48:45.089Z,100836.56
2023-05-20T19:52:49.936Z,100830.34
2023-05-20T19:56:54.699Z,100828.28
2023-05-20T20:00:57.895Z,100821.25
2023-05-20T20:05:02.770Z,100830.88
2023-05-20T20:09:06.951Z,100821.66
2023-05-20T20:13:11.312Z,100827.41
2023-05-20T20:17:15.746Z,100831.16
2023-05-20T20:21:19.061Z,100833.56
2023-05-20T20:25:24.274Z,100834.53
2023-05-20T20:29:28.736Z,100831.78
2023-05-20T20:33:33.123Z,100827.22
2023-05-20T20:37:37.837Z,100824.69
2023-05-20T20:41:45.097Z,100824.56
2023-05-20T20:45:51.042Z,100824.56
2023-05-20T20:49:54.032Z,100819.13
2023-05-20T20:53:56.992Z,100825.97
2023-05-20T20:58:02.941Z,100825.19
2023-05-20T21:02:07.769Z,100819.88
2023-05-20T21:06:12.918Z,100820.97
2023-05-20T21:10:16.555Z,100809.94
2023-05-20T21:14:19.572Z,100818.16
2023-05-20T21:18:24.286Z,100821.34
2023-05-20T21:22:27.569Z,100814.50
2023-05-20T21:26:31.078Z,100821.34
2023-05-20T21:30:34.247Z,100820.00
2023-05-20T21:34:38.671Z,100820.47
2023-05-20T21:38:41.713Z,100822.50
2023-05-20T21:42:45.186Z,100823.44
2023-05-20T21:46:48.484Z,100815.63
2023-05-20T21:50:53.128Z,100813.78
2023-05-20T21:54:56.329Z,100800.19
2023-05-20T21:58:59.633Z,100811.19
2023-05-20T22:03:03.025Z,100809.53
2023-05-20T22:07:07.974Z,100796.94
2023-05-20T22:11:11.026Z,100790.66
2023-05-20T22:15:14.231Z,100795.84
2023-05-20T22:19:17.899Z,100790.44
2023-05-20T22:23:22.482Z,100792.56
2023-05-20T22:27:25.916Z,100790.94
2023-05-20T22:31:29.109Z,100782.53
2023-05-20T22:35:33.193Z,100788.63
2023-05-20T22:39:38.828Z,100782.22
2023-05-20T22:43:42.188Z,100775.50
2023-05-20T22:47:46.468Z,100770.00
2023-05-20T22:51:50.407Z,100769.22
2023-05-20T22:55:55.900Z,100774.75
2023-05-20T22:59:58.861Z,100764.66
2023-05-20T23:04:01.921Z,100759.25
2023-05-20T23:08:05.067Z,100757.56
2023-05-20T23:12:09.616Z,100755.47
2023-05-20T23:16:12.792Z,100741.44
2023-05-20T23:20:19.052Z,100736.69
2023-05-20T23:24:22.272Z,100735.00
2023-05-20T23:28:27.125Z,100729.81
2023-05-20T23:32:30.152Z,100713.78
2023-05-20T23:36:34.497Z,100710.41
2023-05-20T23:40:37.510Z,100698.97
2023-05-20T23:44:41.867Z,100696.88
2023-05-20T23:48:45.325Z,100695.72
2023-05-20T23:52:48.557Z,100698.00
2023-05-20T23:56:51.599Z,100693.63
